sensor_id;sensor_type;location;lat;lon;timestamp;pressure;altitude;pressure_sealevel;temperature;humidity
51147;BME280;37207;53.060;18.726;2024-03-06T00:02:01;101175.81;;;4.11;100.00
51147;BME280;37207;53.060;18.726;2024-03-06T00:04:28;101177.13;;;4.12;100.00
51147;BME280;37207;53.060;18.726;2024-03-06T00:06:54;101177.73;;;4.12;100.00
51147;BME280;37207;53.060;18.726;2024-03-06T00:09:21;101178.89;;;4.13;100.00
51147;BME280;37207;53.060;18.726;2024-03-06T00:11:47;101176.20;;;4.14;100.00
51147;BME280;37207;53.060;18.726;2024-03-06T00:14:12;101180.16;;;4.15;100.00
51147;BME280;37207;53.060;18.726;2024-03-06T00:16:38;101183.57;;;4.16;100.00
51147;BME280;37207;53.060;18.726;2024-03-06T00:19:04;101184.33;;;4.16;100.00
51147;BME280;37207;53.060;18.726;2024-03-06T00:21:30;101183.16;;;4.17;100.00
51147;BME280;37207;53.060;18.726;2024-03-06T00:23:56;101184.70;;;4.18;100.00
51147;BME280;37207;53.060;18.726;2024-03-06T00:26:22;101185.46;;;4.18;100.00
51147;BME280;37207;53.060;18.726;2024-03-06T00:28:48;101190.23;;;4.18;100.00
51147;BME280;37207;53.060;18.726;2024-03-06T00:31:13;101187.58;;;4.19;100.00
51147;BME280;37207;53.060;18.726;2024-03-06T00:33:40;101192.02;;;4.19;100.00
51147;BME280;37207;53.060;18.726;2024-03-06T00:36:06;101195.99;;;4.19;100.00
51147;BME280;37207;53.060;18.726;2024-03-06T00:38:32;101198.80;;;4.19;100.00
51147;BME280;37207;53.060;18.726;2024-03-06T00:40:57;101198.71;;;4.20;100.00
51147;BME280;37207;53.060;18.726;2024-03-06T00:43:23;101200.82;;;4.20;100.00
51147;BME280;37207;53.060;18.726;2024-03-06T00:45:49;101199.96;;;4.20;100.00
51147;BME280;37207;53.060;18.726;2024-03-06T00:48:15;101201.86;;;4.19;100.00
51147;BME280;37207;53.060;18.726;2024-03-06T00:50:41;101208.27;;;4.19;100.00
51147;BME280;37207;53.060;18.726;2024-03-06T00:53:07;101211.02;;;4.18;100.00
51147;BME280;37207;53.060;18.726;2024-03-06T00:55:33;101211.56;;;4.18;100.00
51147;BME280;37207;53.060;18.726;2024-03-06T00:57:59;101209.23;;;4.17;100.00
51147;BME280;37207;53.060;18.726;2024-03-06T01:00:24;101211.35;;;4.17;100.00
51147;BME280;37207;53.060;18.726;2024-03-06T01:02:50;101209.41;;;4.17;100.00
51147;BME280;37207;53.060;18.726;2024-03-06T01:05:16;101208.16;;;4.16;100.00
51147;BME280;37207;53.060;18.726;2024-03-06T01:07:42;101206.94;;;4.16;100.00
51147;BME280;37207;53.060;18.726;2024-03-06T01:10:10;101209.42;;;4.16;100.00
51147;BME280;37207;53.060;18.726;2024-03-06T01:12:36;101213.65;;;4.16;100.00
51147;BME280;37207;53.060;18.726;2024-03-06T01:15:02;101211.25;;;4.15;100.00
51147;BME280;37207;53.060;18.726;2024-03-06T01:17:29;101203.89;;;4.16;100.00
51147;BME280;37207;53.060;18.726;2024-03-06T01:19:55;101213.95;;;4.16;100.00
51147;BME280;37207;53.060;18.726;2024-03-06T01:22:21;101218.35;;;4.16;100.00
51147;BME280;37207;53.060;18.726;2024-03-06T01:24:46;101219.58;;;4.16;100.00
51147;BME280;37207;53.060;18.726;2024-03-06T01:27:17;101217.40;;;4.16;100.00
51147;BME280;37207;53.060;18.726;2024-03-06T01:29:43;101220.17;;;4.17;100.00
51147;BME280;37207;53.060;18.726;2024-03-06T01:32:09;101223.36;;;4.18;100.00
51147;BME280;37207;53.060;18.726;2024-03-06T01:34:35;101223.68;;;4.18;100.00
51147;BME280;37207;53.060;18.726;2024-03-06T01:37:01;101221.88;;;4.18;100.00
51147;BME280;37207;53.060;18.726;2024-03-06T01:39:27;101225.10;;;4.17;100.00
51147;BME280;37207;53.060;18.726;2024-03-06T01:41:53;101226.34;;;4.17;100.00
51147;BME280;37207;53.060;18.726;2024-03-06T01:44:19;101229.61;;;4.18;100.00
51147;BME280;37207;53.060;18.726;2024-03-06T01:46:45;101231.55;;;4.19;100.00
51147;BME280;37207;53.060;18.726;2024-03-06T01:49:12;101233.17;;;4.20;100.00
51147;BME280;37207;53.060;18.726;2024-03-06T01:51:40;101234.46;;;4.21;100.00
51147;BME280;37207;53.060;18.726;2024-03-06T01:54:06;101238.08;;;4.20;100.00
51147;BME280;37207;53.060;18.726;2024-03-06T01:56:35;101240.48;;;4.21;100.00
51147;BME280;37207;53.060;18.726;2024-03-06T01:59:02;101242.67;;;4.21;100.00
51147;BME280;37207;53.060;18.726;2024-03-06T02:01:29;101243.05;;;4.22;100.00
51147;BME280;37207;53.060;18.726;2024-03-06T02:03:56;101246.55;;;4.23;100.00
51147;BME280;37207;53.060;18.726;2024-03-06T02:06:22;101239.67;;;4.23;100.00
51147;BME280;37207;53.060;18.726;2024-03-06T02:08:48;101238.88;;;4.23;100.00
51147;BME280;37207;53.060;18.726;2024-03-06T02:11:14;101238.65;;;4.23;100.00
51147;BME280;37207;53.060;18.726;2024-03-06T02:13:42;101240.70;;;4.23;100.00
51147;BME280;37207;53.060;18.726;2024-03-06T02:16:11;101236.17;;;4.22;100.00
51147;BME280;37207;53.060;18.726;2024-03-06T02:18:37;101236.50;;;4.21;100.00
51147;BME280;37207;53.060;18.726;2024-03-06T02:21:03;101238.86;;;4.20;100.00
51147;BME280;37207;53.060;18.726;2024-03-06T02:23:30;101234.73;;;4.19;100.00
51147;BME280;37207;53.060;18.726;2024-03-06T02:25:56;101235.94;;;4.18;100.00
51147;BME280;37207;53.060;18.726;2024-03-06T02:28:22;101240.39;;;4.18;100.00
51147;BME280;37207;53.060;18.726;2024-03-06T02:30:51;101235.08;;;4.18;100.00
51147;BME280;37207;53.060;18.726;2024-03-06T02:33:17;101233.98;;;4.19;100.00
51147;BME280;37207;53.060;18.726;2024-03-06T02:35:43;101232.81;;;4.18;100.00
51147;BME280;37207;53.060;18.726;2024-03-06T02:38:10;101229.61;;;4.18;100.00
51147;BME280;37207;53.060;18.726;2024-03-06T02:40:36;101231.95;;;4.18;100.00
51147;BME280;37207;53.060;18.726;2024-03-06T02:43:02;101233.52;;;4.18;100.00
51147;BME280;37207;53.060;18.726;2024-03-06T02:45:28;101229.55;;;4.18;100.00
51147;BME280;37207;53.060;18.726;2024-03-06T02:47:54;101228.36;;;4.18;100.00
51147;BME280;37207;53.060;18.726;2024-03-06T02:50:20;101226.17;;;4.18;100.00
51147;BME280;37207;53.060;18.726;2024-03-06T02:52:46;101226.58;;;4.18;100.00
51147;BME280;37207;53.060;18.726;2024-03-06T02:55:12;101228.76;;;4.18;100.00
51147;BME280;37207;53.060;18.726;2024-03-06T02:57:38;101234.99;;;4.18;100.00
51147;BME280;37207;53.060;18.726;2024-03-06T03:00:04;101230.14;;;4.19;100.00
51147;BME280;37207;53.060;18.726;2024-03-06T03:02:30;101232.55;;;4.19;100.00
51147;BME280;37207;53.060;18.726;2024-03-06T03:04:57;101234.50;;;4.19;100.00
51147;BME280;37207;53.060;18.726;2024-03-06T03:07:23;101233.27;;;4.20;100.00
51147;BME280;37207;53.060;18.726;2024-03-06T03:09:49;101237.59;;;4.21;100.00
51147;BME280;37207;53.060;18.726;2024-03-06T03:12:15;101238.84;;;4.21;100.00
51147;BME280;37207;53.060;18.726;2024-03-06T03:14:40;101244.23;;;4.22;100.00
51147;BME280;37207;53.060;18.726;2024-03-06T03:17:07;101242.59;;;4.22;100.00
51147;BME280;37207;53.060;18.726;2024-03-06T03:19:33;101243.38;;;4.21;100.00
51147;BME280;37207;53.060;18.726;2024-03-06T03:21:59;101244.77;;;4.22;100.00
51147;BME280;37207;53.060;18.726;2024-03-06T03:24:25;101247.34;;;4.22;100.00
51147;BME280;37207;53.060;18.726;2024-03-06T03:26:53;101247.81;;;4.22;100.00
51147;BME280;37207;53.060;18.726;2024-03-06T03:29:19;101251.10;;;4.22;100.00
51147;BME280;37207;53.060;18.726;2024-03-06T03:31:46;101246.28;;;4.20;100.00
51147;BME280;37207;53.060;18.726;2024-03-06T03:34:12;101245.41;;;4.21;100.00
51147;BME280;37207;53.060;18.726;2024-03-06T03:36:41;101240.71;;;4.22;100.00
51147;BME280;37207;53.060;18.726;2024-03-06T03:39:09;101243.98;;;4.22;100.00
51147;BME280;37207;53.060;18.726;2024-03-06T03:41:46;101245.28;;;4.24;100.00
51147;BME280;37207;53.060;18.726;2024-03-06T03:44:16;101247.46;;;4.24;100.00
51147;BME280;37207;53.060;18.726;2024-03-06T03:46:42;101248.55;;;4.24;100.00
51147;BME280;37207;53.060;18.726;2024-03-06T03:49:08;101250.88;;;4.25;100.00
51147;BME280;37207;53.060;18.726;2024-03-06T03:51:35;101245.94;;;4.26;100.00
51147;BME280;37207;53.060;18.726;2024-03-06T03:54:01;101253.10;;;4.27;100.00
51147;BME280;37207;53.060;18.726;2024-03-06T03:56:27;101249.65;;;4.28;100.00
51147;BME280;37207;53.060;18.726;2024-03-06T03:58:53;101251.17;;;4.29;100.00
51147;BME280;37207;53.060;18.726;2024-03-06T04:01:19;101251.17;;;4.29;100.00
51147;BME280;37207;53.060;18.726;2024-03-06T04:03:44;101250.05;;;4.31;100.00
51147;BME280;37207;53.060;18.726;2024-03-06T04:06:10;101245.65;;;4.31;100.00
51147;BME280;37207;53.060;18.726;2024-03-06T04:08:36;101245.34;;;4.32;100.00
51147;BME280;37207;53.060;18.726;2024-03-06T04:11:05;101248.27;;;4.33;100.00
51147;BME280;37207;53.060;18.726;2024-03-06T04:13:31;101249.33;;;4.34;100.00
51147;BME280;37207;53.060;18.726;2024-03-06T04:16:01;101250.64;;;4.34;100.00
51147;BME280;37207;53.060;18.726;2024-03-06T04:18:31;101246.08;;;4.36;100.00
51147;BME280;37207;53.060;18.726;2024-03-06T04:21:06;101243.96;;;4.36;100.00
51147;BME280;37207;53.060;18.726;2024-03-06T04:23:33;101240.51;;;4.37;100.00
51147;BME280;37207;53.060;18.726;2024-03-06T04:25:59;101245.01;;;4.38;100.00
51147;BME280;37207;53.060;18.726;2024-03-06T04:28:25;101246.79;;;4.39;100.00
51147;BME280;37207;53.060;18.726;2024-03-06T04:30:51;101248.95;;;4.40;100.00
51147;BME280;37207;53.060;18.726;2024-03-06T04:33:17;101244.48;;;4.40;100.00
51147;BME280;37207;53.060;18.726;2024-03-06T04:35:43;101249.00;;;4.41;100.00
51147;BME280;37207;53.060;18.726;2024-03-06T04:38:08;101250.23;;;4.42;100.00
51147;BME280;37207;53.060;18.726;2024-03-06T04:40:34;101252.71;;;4.43;100.00
51147;BME280;37207;53.060;18.726;2024-03-06T04:43:00;101253.86;;;4.44;100.00
51147;BME280;37207;53.060;18.726;2024-03-06T04:45:26;101252.04;;;4.46;100.00
51147;BME280;37207;53.060;18.726;2024-03-06T04:47:54;101254.83;;;4.47;100.00
51147;BME280;37207;53.060;18.726;2024-03-06T04:50:20;101258.38;;;4.48;100.00
51147;BME280;37207;53.060;18.726;2024-03-06T04:52:46;101257.48;;;4.49;100.00
51147;BME280;37207;53.060;18.726;2024-03-06T04:55:12;101252.91;;;4.51;100.00
51147;BME280;37207;53.060;18.726;2024-03-06T04:57:42;101254.84;;;4.52;100.00
51147;BME280;37207;53.060;18.726;2024-03-06T05:00:09;101250.20;;;4.53;100.00
51147;BME280;37207;53.060;18.726;2024-03-06T05:02:35;101256.73;;;4.55;100.00
51147;BME280;37207;53.060;18.726;2024-03-06T05:05:03;101258.27;;;4.56;100.00
51147;BME280;37207;53.060;18.726;2024-03-06T05:07:32;101257.29;;;4.58;100.00
51147;BME280;37207;53.060;18.726;2024-03-06T05:09:58;101267.43;;;4.59;100.00
51147;BME280;37207;53.060;18.726;2024-03-06T05:12:24;101267.64;;;4.60;100.00
51147;BME280;37207;53.060;18.726;2024-03-06T05:14:53;101271.77;;;4.61;100.00
51147;BME280;37207;53.060;18.726;2024-03-06T05:17:20;101273.61;;;4.62;100.00
51147;BME280;37207;53.060;18.726;2024-03-06T05:19:46;101279.15;;;4.62;100.00
51147;BME280;37207;53.060;18.726;2024-03-06T05:22:13;101280.77;;;4.63;100.00
51147;BME280;37207;53.060;18.726;2024-03-06T05:24:44;101288.04;;;4.64;100.00
51147;BME280;37207;53.060;18.726;2024-03-06T05:27:10;101285.74;;;4.65;100.00
51147;BME280;37207;53.060;18.726;2024-03-06T05:29:39;101292.05;;;4.66;100.00
51147;BME280;37207;53.060;18.726;2024-03-06T05:32:05;101298.83;;;4.67;100.00
51147;BME280;37207;53.060;18.726;2024-03-06T05:34:33;101301.44;;;4.68;100.00
51147;BME280;37207;53.060;18.726;2024-03-06T05:36:59;101302.75;;;4.69;100.00
51147;BME280;37207;53.060;18.726;2024-03-06T05:39:25;101305.15;;;4.70;100.00
51147;BME280;37207;53.060;18.726;2024-03-06T05:41:51;101311.31;;;4.71;100.00
51147;BME280;37207;53.060;18.726;2024-03-06T05:44:18;101309.73;;;4.71;100.00
51147;BME280;37207;53.060;18.726;2024-03-06T05:46:44;101312.59;;;4.72;100.00
51147;BME280;37207;53.060;18.726;2024-03-06T05:49:10;101315.95;;;4.73;100.00
51147;BME280;37207;53.060;18.726;2024-03-06T05:51:37;101320.63;;;4.74;100.00
51147;BME280;37207;53.060;18.726;2024-03-06T05:54:03;101323.80;;;4.74;100.00
51147;BME280;37207;53.060;18.726;2024-03-06T05:56:31;101325.45;;;4.75;100.00
51147;BME280;37207;53.060;18.726;2024-03-06T05:58:57;101325.89;;;4.76;100.00
51147;BME280;37207;53.060;18.726;2024-03-06T06:01:23;101327.98;;;4.77;100.00
51147;BME280;37207;53.060;18.726;2024-03-06T06:03:48;101332.27;;;4.77;100.00
51147;BME280;37207;53.060;18.726;2024-03-06T06:06:17;101331.03;;;4.77;100.00
51147;BME280;37207;53.060;18.726;2024-03-06T06:08:44;101333.38;;;4.77;100.00
51147;BME280;37207;53.060;18.726;2024-03-06T06:11:11;101335.95;;;4.78;100.00
51147;BME280;37207;53.060;18.726;2024-03-06T06:13:37;101337.04;;;4.78;100.00
51147;BME280;37207;53.060;18.726;2024-03-06T06:16:05;101338.36;;;4.78;100.00
51147;BME280;37207;53.060;18.726;2024-03-06T06:18:31;101342.10;;;4.78;100.00
51147;BME280;37207;53.060;18.726;2024-03-06T06:20:58;101346.24;;;4.79;100.00
51147;BME280;37207;53.060;18.726;2024-03-06T06:23:23;101345.61;;;4.79;100.00
51147;BME280;37207;53.060;18.726;2024-03-06T06:25:49;101350.14;;;4.79;100.00
51147;BME280;37207;53.060;18.726;2024-03-06T06:28:15;101348.11;;;4.79;100.00
51147;BME280;37207;53.060;18.726;2024-03-06T06:30:42;101348.96;;;4.79;100.00
51147;BME280;37207;53.060;18.726;2024-03-06T06:33:08;101350.36;;;4.79;100.00
51147;BME280;37207;53.060;18.726;2024-03-06T06:35:35;101354.27;;;4.80;100.00
51147;BME280;37207;53.060;18.726;2024-03-06T06:38:01;101357.92;;;4.80;100.00
51147;BME280;37207;53.060;18.726;2024-03-06T06:40:27;101357.77;;;4.80;100.00
51147;BME280;37207;53.060;18.726;2024-03-06T06:42:56;101360.98;;;4.81;100.00
51147;BME280;37207;53.060;18.726;2024-03-06T06:45:22;101362.14;;;4.81;100.00
51147;BME280;37207;53.060;18.726;2024-03-06T06:47:48;101362.84;;;4.81;100.00
51147;BME280;37207;53.060;18.726;2024-03-06T06:50:15;101364.17;;;4.81;100.00
51147;BME280;37207;53.060;18.726;2024-03-06T06:52:41;101368.55;;;4.81;100.00
51147;BME280;37207;53.060;18.726;2024-03-06T06:55:07;101372.39;;;4.81;100.00
51147;BME280;37207;53.060;18.726;2024-03-06T06:57:35;101375.83;;;4.81;100.00
51147;BME280;37207;53.060;18.726;2024-03-06T07:00:01;101378.40;;;4.82;100.00
51147;BME280;37207;53.060;18.726;2024-03-06T07:02:36;101379.95;;;4.82;100.00
51147;BME280;37207;53.060;18.726;2024-03-06T07:05:03;101383.38;;;4.83;100.00
51147;BME280;37207;53.060;18.726;2024-03-06T07:07:30;101388.13;;;4.83;100.00
51147;BME280;37207;53.060;18.726;2024-03-06T07:09:56;101387.71;;;4.84;100.00
51147;BME280;37207;53.060;18.726;2024-03-06T07:12:22;101384.39;;;4.85;100.00
51147;BME280;37207;53.060;18.726;2024-03-06T07:14:48;101387.67;;;4.85;100.00
51147;BME280;37207;53.060;18.726;2024-03-06T07:17:13;101389.76;;;4.86;100.00
51147;BME280;37207;53.060;18.726;2024-03-06T07:19:39;101390.92;;;4.86;100.00
51147;BME280;37207;53.060;18.726;2024-03-06T07:22:05;101392.11;;;4.86;100.00
51147;BME280;37207;53.060;18.726;2024-03-06T07:24:31;101391.02;;;4.86;100.00
51147;BME280;37207;53.060;18.726;2024-03-06T07:26:57;101390.71;;;4.86;100.00
51147;BME280;37207;53.060;18.726;2024-03-06T07:29:22;101393.75;;;4.86;100.00
51147;BME280;37207;53.060;18.726;2024-03-06T07:31:48;101393.52;;;4.86;100.00
51147;BME280;37207;53.060;18.726;2024-03-06T07:34:14;101397.35;;;4.86;100.00
51147;BME280;37207;53.060;18.726;2024-03-06T07:36:40;101397.20;;;4.86;100.00
51147;BME280;37207;53.060;18.726;2024-03-06T07:39:06;101400.79;;;4.86;100.00
51147;BME280;37207;53.060;18.726;2024-03-06T07:41:35;101403.45;;;4.86;100.00
51147;BME280;37207;53.060;18.726;2024-03-06T07:44:01;101404.06;;;4.87;100.00
51147;BME280;37207;53.060;18.726;2024-03-06T07:46:28;101410.45;;;4.88;100.00
51147;BME280;37207;53.060;18.726;2024-03-06T07:48:54;101413.15;;;4.90;100.00
51147;BME280;37207;53.060;18.726;2024-03-06T07:51:20;101411.88;;;4.91;100.00
51147;BME280;37207;53.060;18.726;2024-03-06T07:53:46;101415.44;;;4.93;100.00
51147;BME280;37207;53.060;18.726;2024-03-06T07:56:12;101420.55;;;4.95;100.00
51147;BME280;37207;53.060;18.726;2024-03-06T07:58:38;101425.58;;;4.94;100.00
51147;BME280;37207;53.060;18.726;2024-03-06T08:01:04;101428.75;;;4.96;100.00
51147;BME280;37207;53.060;18.726;2024-03-06T08:03:30;101433.82;;;4.96;100.00
51147;BME280;37207;53.060;18.726;2024-03-06T08:05:56;101433.55;;;4.98;100.00
51147;BME280;37207;53.060;18.726;2024-03-06T08:08:22;101435.74;;;4.98;100.00
51147;BME280;37207;53.060;18.726;2024-03-06T08:10:48;101436.91;;;4.98;100.00
51147;BME280;37207;53.060;18.726;2024-03-06T08:13:14;101441.38;;;4.98;100.00
51147;BME280;37207;53.060;18.726;2024-03-06T08:15:39;101443.38;;;4.99;100.00
51147;BME280;37207;53.060;18.726;2024-03-06T08:18:06;101443.27;;;5.04;100.00
51147;BME280;37207;53.060;18.726;2024-03-06T08:20:32;101439.63;;;5.09;100.00
51147;BME280;37207;53.060;18.726;2024-03-06T08:22:58;101437.35;;;5.18;100.00
51147;BME280;37207;53.060;18.726;2024-03-06T08:25:24;101438.92;;;5.35;100.00
51147;BME280;37207;53.060;18.726;2024-03-06T08:27:50;101441.23;;;5.49;100.00
51147;BME280;37207;53.060;18.726;2024-03-06T08:30:15;101442.17;;;5.61;100.00
51147;BME280;37207;53.060;18.726;2024-03-06T08:32:41;101443.83;;;5.70;100.00
51147;BME280;37207;53.060;18.726;2024-03-06T08:35:10;101439.26;;;5.76;100.00
51147;BME280;37207;53.060;18.726;2024-03-06T08:37:39;101441.21;;;5.83;100.00
51147;BME280;37207;53.060;18.726;2024-03-06T08:40:05;101443.31;;;5.87;100.00
51147;BME280;37207;53.060;18.726;2024-03-06T08:42:33;101442.84;;;5.90;100.00
51147;BME280;37207;53.060;18.726;2024-03-06T08:45:01;101441.30;;;5.93;100.00
51147;BME280;37207;53.060;18.726;2024-03-06T08:47:27;101443.34;;;5.95;100.00
51147;BME280;37207;53.060;18.726;2024-03-06T08:49:53;101443.50;;;6.01;100.00
51147;BME280;37207;53.060;18.726;2024-03-06T08:52:19;101445.91;;;6.07;100.00
51147;BME280;37207;53.060;18.726;2024-03-06T08:54:46;101448.65;;;6.16;100.00
51147;BME280;37207;53.060;18.726;2024-03-06T08:57:12;101450.39;;;6.23;100.00
51147;BME280;37207;53.060;18.726;2024-03-06T08:59:38;101449.66;;;6.30;100.00
51147;BME280;37207;53.060;18.726;2024-03-06T09:02:13;101450.82;;;6.34;100.00
51147;BME280;37207;53.060;18.726;2024-03-06T09:04:43;101454.06;;;6.33;99.54
51147;BME280;37207;53.060;18.726;2024-03-06T09:07:09;101450.36;;;6.30;99.65
51147;BME280;37207;53.060;18.726;2024-03-06T09:09:35;101457.80;;;6.31;99.81
51147;BME280;37207;53.060;18.726;2024-03-06T09:12:05;101460.34;;;6.33;99.65
51147;BME280;37207;53.060;18.726;2024-03-06T09:14:34;101458.44;;;6.33;99.25
51147;BME280;37207;53.060;18.726;2024-03-06T09:17:00;101459.98;;;6.37;99.30
51147;BME280;37207;53.060;18.726;2024-03-06T09:19:26;101467.42;;;6.40;99.09
51147;BME280;37207;53.060;18.726;2024-03-06T09:21:52;101467.28;;;6.41;99.35
51147;BME280;37207;53.060;18.726;2024-03-06T09:24:20;101463.27;;;6.42;99.26
51147;BME280;37207;53.060;18.726;2024-03-06T09:26:45;101466.54;;;6.43;99.17
51147;BME280;37207;53.060;18.726;2024-03-06T09:29:12;101465.36;;;6.43;98.88
51147;BME280;37207;53.060;18.726;2024-03-06T09:31:38;101463.06;;;6.44;98.91
51147;BME280;37207;53.060;18.726;2024-03-06T09:34:04;101466.29;;;6.49;99.16
51147;BME280;37207;53.060;18.726;2024-03-06T09:37:45;101464.44;;;6.70;98.76
51147;BME280;37207;53.060;18.726;2024-03-06T09:40:19;101466.35;;;6.84;98.35
51147;BME280;37207;53.060;18.726;2024-03-06T09:42:46;101469.82;;;7.06;98.10
51147;BME280;37207;53.060;18.726;2024-03-06T09:45:12;101469.30;;;7.35;97.65
51147;BME280;37207;53.060;18.726;2024-03-06T09:47:38;101468.14;;;7.49;96.85
51147;BME280;37207;53.060;18.726;2024-03-06T09:50:08;101465.77;;;7.68;96.51
51147;BME280;37207;53.060;18.726;2024-03-06T09:52:35;101471.30;;;7.86;95.61
51147;BME280;37207;53.060;18.726;2024-03-06T09:55:02;101474.31;;;8.01;95.67
51147;BME280;37207;53.060;18.726;2024-03-06T09:57:30;101478.29;;;8.29;95.95
51147;BME280;37207;53.060;18.726;2024-03-06T09:59:56;101478.74;;;8.39;94.43
51147;BME280;37207;53.060;18.726;2024-03-06T10:02:56;101476.11;;;8.35;93.93
51147;BME280;37207;53.060;18.726;2024-03-06T10:05:23;101481.20;;;8.33;94.45
51147;BME280;37207;53.060;18.726;2024-03-06T10:07:52;101484.08;;;8.32;94.70
51147;BME280;37207;53.060;18.726;2024-03-06T10:10:19;101485.34;;;8.32;94.65
51147;BME280;37207;53.060;18.726;2024-03-06T10:12:46;101487.00;;;8.27;94.46
51147;BME280;37207;53.060;18.726;2024-03-06T10:15:14;101487.84;;;8.19;94.12
51147;BME280;37207;53.060;18.726;2024-03-06T10:17:39;101491.96;;;8.09;93.66
51147;BME280;37207;53.060;18.726;2024-03-06T10:20:24;101488.04;;;8.02;93.93
51147;BME280;37207;53.060;18.726;2024-03-06T10:22:51;101486.90;;;7.98;93.75
51147;BME280;37207;53.060;18.726;2024-03-06T10:25:21;101482.64;;;7.98;93.69
51147;BME280;37207;53.060;18.726;2024-03-06T10:28:05;101489.24;;;8.00;93.64
51147;BME280;37207;53.060;18.726;2024-03-06T10:30:38;101484.32;;;7.96;93.06
51147;BME280;37207;53.060;18.726;2024-03-06T10:33:08;101483.77;;;7.82;92.59
51147;BME280;37207;53.060;18.726;2024-03-06T10:35:37;101485.83;;;7.70;92.44
51147;BME280;37207;53.060;18.726;2024-03-06T10:38:06;101483.66;;;7.60;92.44
51147;BME280;37207;53.060;18.726;2024-03-06T10:40:37;101484.42;;;7.54;92.83
51147;BME280;37207;53.060;18.726;2024-03-06T10:43:05;101484.40;;;7.49;92.47
51147;BME280;37207;53.060;18.726;2024-03-06T10:45:50;101488.09;;;7.46;92.86
51147;BME280;37207;53.060;18.726;2024-03-06T10:48:19;101486.08;;;7.46;92.73
51147;BME280;37207;53.060;18.726;2024-03-06T10:50:49;101496.67;;;7.46;92.58
51147;BME280;37207;53.060;18.726;2024-03-06T10:53:17;101501.05;;;7.47;92.33
51147;BME280;37207;53.060;18.726;2024-03-06T10:55:44;101496.91;;;7.44;91.67
51147;BME280;37207;53.060;18.726;2024-03-06T10:58:11;101501.82;;;7.40;91.81
51147;BME280;37207;53.060;18.726;2024-03-06T11:00:39;101503.90;;;7.40;92.00
51147;BME280;37207;53.060;18.726;2024-03-06T11:03:06;101502.48;;;7.42;91.89
51147;BME280;37207;53.060;18.726;2024-03-06T11:05:40;101508.15;;;7.44;91.81
51147;BME280;37207;53.060;18.726;2024-03-06T11:08:06;101504.20;;;7.42;91.17
51147;BME280;37207;53.060;18.726;2024-03-06T11:10:34;101505.67;;;7.41;91.11
51147;BME280;37207;53.060;18.726;2024-03-06T11:13:01;101504.75;;;7.40;91.18
51147;BME280;37207;53.060;18.726;2024-03-06T11:15:28;101508.46;;;7.39;90.85
51147;BME280;37207;53.060;18.726;2024-03-06T11:17:54;101509.15;;;7.37;90.87
51147;BME280;37207;53.060;18.726;2024-03-06T11:20:22;101509.73;;;7.36;90.90
51147;BME280;37207;53.060;18.726;2024-03-06T11:28:20;101514.05;;;7.33;90.40
51147;BME280;37207;53.060;18.726;2024-03-06T11:33:42;101514.91;;;7.21;89.71
51147;BME280;37207;53.060;18.726;2024-03-06T11:38:56;101515.73;;;7.20;90.50
51147;BME280;37207;53.060;18.726;2024-03-06T11:41:24;101511.48;;;7.22;90.11
51147;BME280;37207;53.060;18.726;2024-03-06T11:43:51;101514.39;;;7.25;89.30
51147;BME280;37207;53.060;18.726;2024-03-06T11:46:20;101514.98;;;7.28;89.35
51147;BME280;37207;53.060;18.726;2024-03-06T11:48:55;101516.92;;;7.31;89.66
51147;BME280;37207;53.060;18.726;2024-03-06T11:51:22;101519.91;;;7.34;88.70
51147;BME280;37207;53.060;18.726;2024-03-06T11:53:52;101519.23;;;7.36;88.42
51147;BME280;37207;53.060;18.726;2024-03-06T11:56:19;101519.83;;;7.37;87.97
51147;BME280;37207;53.060;18.726;2024-03-06T11:58:46;101518.69;;;7.38;88.88
51147;BME280;37207;53.060;18.726;2024-03-06T12:01:13;101518.31;;;7.43;89.11
51147;BME280;37207;53.060;18.726;2024-03-06T12:03:41;101519.95;;;7.45;88.33
51147;BME280;37207;53.060;18.726;2024-03-06T12:06:06;101521.13;;;7.48;88.16
51147;BME280;37207;53.060;18.726;2024-03-06T12:08:33;101520.75;;;7.52;88.40
51147;BME280;37207;53.060;18.726;2024-03-06T12:11:04;101519.77;;;7.56;87.98
51147;BME280;37207;53.060;18.726;2024-03-06T12:13:31;101523.63;;;7.60;87.50
51147;BME280;37207;53.060;18.726;2024-03-06T12:15:56;101522.70;;;7.62;87.22
51147;BME280;37207;53.060;18.726;2024-03-06T12:18:24;101525.09;;;7.66;86.84
51147;BME280;37207;53.060;18.726;2024-03-06T12:20:51;101524.58;;;7.70;86.70
51147;BME280;37207;53.060;18.726;2024-03-06T12:23:21;101519.01;;;7.75;86.06
51147;BME280;37207;53.060;18.726;2024-03-06T12:25:47;101521.23;;;7.76;85.74
51147;BME280;37207;53.060;18.726;2024-03-06T12:28:13;101523.06;;;7.78;85.80
51147;BME280;37207;53.060;18.726;2024-03-06T12:30:41;101522.88;;;7.81;85.18
51147;BME280;37207;53.060;18.726;2024-03-06T12:33:16;101521.98;;;7.84;85.12
51147;BME280;37207;53.060;18.726;2024-03-06T12:35:42;101523.64;;;7.89;84.84
51147;BME280;37207;53.060;18.726;2024-03-06T12:38:17;101526.90;;;7.94;84.06
51147;BME280;37207;53.060;18.726;2024-03-06T12:40:43;101529.77;;;8.02;83.55
51147;BME280;37207;53.060;18.726;2024-03-06T12:43:09;101527.27;;;8.13;82.71
51147;BME280;37207;53.060;18.726;2024-03-06T12:45:36;101527.86;;;8.42;81.37
51147;BME280;37207;53.060;18.726;2024-03-06T12:48:03;101530.67;;;8.64;81.54
51147;BME280;37207;53.060;18.726;2024-03-06T12:50:31;101530.95;;;8.84;81.97
51147;BME280;37207;53.060;18.726;2024-03-06T12:52:57;101530.78;;;8.89;81.90
51147;BME280;37207;53.060;18.726;2024-03-06T12:55:22;101531.92;;;8.82;80.06